Time;durP1;ratioP1;P1;durP2;ratioP2;P2;SDS_P1;SDS_P2;PMS_P1;PMS_P2;Temp;Humidity;BMP_temperature;BMP_pressure;BME280_temperature;BME280_humidity;BME280_pressure;Samples;Min_cycle;Max_cycle;Signal;HPM_P1;HPM_P2
2022/09/29 00:00:51;;;;;;;0.60;0.60;;;11.30;73.20;;;11.16;59.96;93532.78;5044951;28;20656;-83
2022/09/29 00:03:20;;;;;;;0.70;0.70;;;11.40;73.40;;;11.12;60.05;93534.25;5058444;28;20292;-83
2022/09/29 00:05:52;;;;;;;0.80;0.80;;;11.40;73.40;;;11.12;60.07;93544.75;5077182;28;20187;-83
2022/09/29 00:08:24;;;;;;;0.80;0.80;;;11.30;73.40;;;11.15;60.03;93554.78;5065577;28;20284;-82
2022/09/29 00:10:52;;;;;;;0.60;0.60;;;11.30;73.30;;;11.15;60.05;93557.41;5052695;28;20199;-82
2022/09/29 00:13:20;;;;;;;0.60;0.60;;;11.30;74.20;;;11.15;59.90;93552.16;5058100;28;20222;-82
2022/09/29 00:15:59;;;;;;;0.50;0.50;;;11.30;73.30;;;11.14;60.44;93553.19;5057382;28;20206;-83
2022/09/29 00:18:29;;;;;;;0.60;0.60;;;11.40;73.70;;;11.11;60.69;93548.38;5071568;28;20715;-83
2022/09/29 00:21:05;;;;;;;0.60;0.60;;;11.40;73.40;;;11.13;60.12;93548.97;5046674;28;20209;-84
2022/09/29 00:23:34;;;;;;;0.60;0.60;;;11.30;73.60;;;11.09;60.66;93538.13;5048742;28;20226;-83
2022/09/29 00:26:07;;;;;;;0.60;0.60;;;11.30;73.40;;;11.12;60.54;93548.19;5072994;28;20199;-84
2022/09/29 00:28:38;;;;;;;0.60;0.60;;;11.30;73.50;;;11.10;60.72;93555.47;5060619;28;20219;-84
2022/09/29 00:31:07;;;;;;;0.73;0.73;;;11.40;73.50;;;11.08;60.69;93548.88;5040025;28;20198;-83
2022/09/29 00:33:36;;;;;;;0.68;0.68;;;11.30;73.50;;;11.10;60.48;93554.69;5057271;28;20206;-83
2022/09/29 00:36:08;;;;;;;0.60;0.60;;;11.30;74.50;;;11.09;60.55;93556.50;5055730;28;20765;-84
2022/09/29 00:38:40;;;;;;;0.60;0.60;;;11.30;73.60;;;11.08;60.60;93552.28;5089083;28;20210;-84
2022/09/29 00:41:16;;;;;;;0.80;0.80;;;11.40;74.40;;;11.07;60.42;93549.88;5088929;28;20205;-82
2022/09/29 00:44:43;;;;;;;0.70;0.70;;;11.40;73.60;;;11.03;60.72;93544.28;5080058;28;20198;-83
2022/09/29 00:47:15;;;;;;;0.70;0.70;;;11.30;73.90;;;10.98;60.90;93531.84;5105292;28;20234;-84
2022/09/29 00:49:56;;;;;;;0.60;0.60;;;11.30;73.70;;;10.96;61.00;93526.06;5066471;28;20223;-84
2022/09/29 00:52:41;;;;;;;0.60;0.60;;;11.30;73.60;;;11.00;60.38;93523.78;5057635;28;20233;-84
2022/09/29 00:55:27;;;;;;;0.60;0.60;;;11.30;73.90;;;11.01;60.63;93518.28;5053655;28;20680;-83
2022/09/29 00:58:33;;;;;;;0.60;0.60;;;11.30;74.00;;;10.98;60.71;93521.34;5082436;28;20223;-84
2022/09/29 01:01:00;;;;;;;0.60;0.60;;;11.30;74.00;;;10.99;60.68;93528.22;5086049;28;20216;-84
2022/09/29 01:03:34;;;;;;;0.70;0.70;;;11.30;73.50;;;10.96;60.92;93517.38;5056370;28;20226;-84
2022/09/29 01:06:09;;;;;;;0.60;0.60;;;11.30;73.80;;;10.99;60.85;93514.31;5062688;28;20213;-84
2022/09/29 01:09:09;;;;;;;0.60;0.60;;;11.30;73.80;;;10.94;60.62;93519.44;5073191;28;20218;-84
2022/09/29 01:11:37;;;;;;;0.63;0.63;;;11.20;73.70;;;11.00;60.55;93524.56;5063299;28;20242;-84
2022/09/29 01:14:07;;;;;;;0.80;0.80;;;11.30;73.70;;;10.98;60.88;93526.59;5056328;28;20203;-83
2022/09/29 01:16:38;;;;;;;0.60;0.60;;;11.20;73.80;;;10.96;60.94;93523.44;5039336;28;20225;-83
2022/09/29 01:19:46;;;;;;;0.60;0.60;;;11.20;73.70;;;10.92;61.13;93521.50;5056953;28;20193;-84
2022/09/29 01:22:51;;;;;;;0.80;0.80;;;11.20;74.00;;;10.78;61.32;93511.22;5074370;28;20227;-83
2022/09/29 01:26:15;;;;;;;0.70;0.70;;;11.30;73.90;;;10.77;61.51;93524.56;5058010;28;20195;-84
2022/09/29 01:29:06;;;;;;;0.70;0.70;;;11.10;74.00;;;10.70;61.32;93530.69;5056643;28;20237;-84
2022/09/29 01:31:58;;;;;;;0.70;0.70;;;11.20;74.40;;;10.68;61.64;93532.75;5088804;28;20226;-84
2022/09/29 01:34:49;;;;;;;0.60;0.60;;;11.10;74.00;;;10.62;61.60;93520.56;5038843;28;20672;-83
2022/09/29 01:38:21;;;;;;;0.60;0.60;;;11.00;74.30;;;10.59;61.96;93528.88;5076463;28;20218;-83
2022/09/29 01:41:34;;;;;;;0.70;0.70;;;11.00;74.10;;;10.56;61.93;93530.13;5058874;28;20671;-83
2022/09/29 01:44:21;;;;;;;0.70;0.70;;;11.00;74.40;;;10.56;61.58;93527.50;5065183;28;20713;-84
2022/09/29 01:46:55;;;;;;;0.70;0.70;;;10.90;74.30;;;10.56;61.37;93517.00;5070176;28;20222;-84
2022/09/29 01:49:26;;;;;;;0.70;0.70;;;10.90;74.30;;;10.57;61.59;93520.44;5086382;28;20332;-84
2022/09/29 01:52:19;;;;;;;0.70;0.70;;;10.90;74.20;;;10.56;61.76;93524.88;5037979;28;20769;-83
2022/09/29 01:54:52;;;;;;;0.70;0.70;;;10.80;74.50;;;10.53;61.98;93520.09;5074827;28;20291;-83
2022/09/29 01:57:56;;;;;;;0.80;0.80;;;10.90;74.40;;;10.50;61.68;93527.63;5055830;28;20230;-84
2022/09/29 02:00:30;;;;;;;0.70;0.70;;;10.80;74.60;;;10.50;61.59;93525.00;5009509;28;20282;-84
2022/09/29 02:03:40;;;;;;;0.70;0.70;;;10.90;74.20;;;10.47;61.60;93523.59;5066458;28;20212;-83
2022/09/29 02:06:20;;;;;;;0.60;0.60;;;10.70;74.50;;;10.48;61.45;93527.81;5074318;28;20198;-84
2022/09/29 02:08:55;;;;;;;0.80;0.80;;;10.70;74.40;;;10.50;61.23;93535.47;5038060;28;20227;-84
2022/09/29 02:11:22;;;;;;;0.63;0.63;;;10.80;74.50;;;10.50;61.38;93540.72;5068107;28;20668;-83
2022/09/29 02:13:58;;;;;;;0.80;0.80;;;10.80;74.30;;;10.52;60.92;93533.41;5043145;28;20231;-84
2022/09/29 02:16:42;;;;;;;0.60;0.60;;;10.70;74.20;;;10.50;61.09;93533.63;5060659;28;20660;-84
2022/09/29 02:19:20;;;;;;;0.70;0.70;;;10.70;75.00;;;10.51;61.01;93534.44;5052931;28;20233;-83
2022/09/29 02:21:48;;;;;;;0.50;0.50;;;10.70;74.70;;;10.47;61.01;93534.06;5069889;28;20242;-84
2022/09/29 02:24:15;;;;;;;0.60;0.60;;;10.70;74.30;;;10.52;61.33;93547.34;5059231;28;20226;-84
2022/09/29 02:26:44;;;;;;;0.70;0.70;;;10.70;74.30;;;10.53;61.35;93546.31;5066736;28;20234;-83
2022/09/29 02:29:11;;;;;;;0.70;0.70;;;10.70;74.40;;;10.55;61.16;93540.84;5060149;28;20545;-84
2022/09/29 02:31:39;;;;;;;0.60;0.60;;;10.70;74.50;;;10.56;61.37;93545.06;5043151;28;20218;-83
2022/09/29 02:34:10;;;;;;;0.70;0.70;;;10.70;75.30;;;10.53;61.42;93535.00;5066659;28;20638;-83
2022/09/29 02:36:57;;;;;;;0.70;0.70;;;10.70;74.70;;;10.55;61.49;93540.84;5068379;28;20716;-83
2022/09/29 02:40:11;;;;;;;0.70;0.70;;;10.70;74.40;;;10.54;61.38;93540.03;5068082;28;20206;-83
2022/09/29 02:43:12;;;;;;;0.60;0.60;;;10.70;74.90;;;10.53;61.34;93548.13;5053865;28;20707;-83
2022/09/29 02:45:43;;;;;;;0.60;0.60;;;10.80;75.10;;;10.55;61.38;93546.88;5054595;28;20198;-84
2022/09/29 02:48:40;;;;;;;0.73;0.73;;;10.70;74.30;;;10.53;61.13;93543.69;5050345;28;20223;-83
2022/09/29 02:51:30;;;;;;;0.70;0.70;;;10.70;74.90;;;10.55;61.08;93541.63;5054598;28;20201;-84
2022/09/29 02:54:30;;;;;;;0.70;0.70;;;10.80;75.10;;;10.56;61.20;93537.19;5053624;28;20233;-83
2022/09/29 02:57:30;;;;;;;0.80;0.80;;;10.70;74.60;;;10.55;61.08;93540.84;5103204;28;20240;-82
2022/09/29 03:00:10;;;;;;;0.70;0.70;;;10.80;75.00;;;10.56;60.80;93534.56;5053569;28;21416;-84
2022/09/29 03:02:40;;;;;;;0.70;0.70;;;10.70;74.40;;;10.56;61.03;93529.34;5051411;28;20239;-83
2022/09/29 03:05:18;;;;;;;0.70;0.70;;;10.80;74.40;;;10.56;61.15;93530.13;5071094;28;20297;-83
2022/09/29 03:07:45;;;;;;;0.57;0.57;;;10.70;74.70;;;10.57;60.94;93531.72;5074066;28;20210;-84
2022/09/29 03:10:16;;;;;;;0.70;0.70;;;10.70;74.40;;;10.57;61.18;93528.31;5053122;28;20206;-82
2022/09/29 03:12:45;;;;;;;0.60;0.60;;;10.70;74.60;;;10.57;61.04;93526.47;5036915;28;20310;-83
2022/09/29 03:15:13;;;;;;;0.60;0.60;;;10.70;74.50;;;10.58;61.12;93524.63;5051757;28;20221;-82
2022/09/29 03:17:40;;;;;;;0.70;0.70;;;10.70;74.50;;;10.57;61.24;93523.84;5053990;28;20222;-84
2022/09/29 03:20:09;;;;;;;0.60;0.60;;;10.70;74.50;;;10.56;60.96;93524.09;5055583;28;20222;-83
2022/09/29 03:22:36;;;;;;;0.60;0.60;;;10.70;74.40;;;10.57;61.01;93521.22;5056494;28;20230;-84
2022/09/29 03:25:05;;;;;;;0.70;0.70;;;10.70;74.50;;;10.57;61.16;93520.44;5046758;28;20252;-83
2022/09/29 03:27:32;;;;;;;0.60;0.60;;;10.70;74.60;;;10.57;60.98;93517.81;5057043;28;20218;-83
2022/09/29 03:29:59;;;;;;;0.70;0.70;;;10.70;74.60;;;10.51;61.15;93509.03;5056165;28;20194;-84
2022/09/29 03:32:26;;;;;;;0.60;0.60;;;10.70;74.60;;;10.56;61.32;93518.84;5055337;28;20226;-84
2022/09/29 03:34:54;;;;;;;0.60;0.60;;;10.70;74.60;;;10.56;61.21;93516.22;5057888;28;20275;-83
2022/09/29 03:37:21;;;;;;;0.80;0.80;;;10.70;74.60;;;10.55;61.13;93519.88;5056707;28;20217;-84
2022/09/29 03:39:48;;;;;;;0.60;0.60;;;10.70;74.60;;;10.55;61.16;93519.88;5057352;28;20203;-83
2022/09/29 03:42:15;;;;;;;0.70;0.70;;;10.70;74.70;;;10.54;61.20;93518.25;5055668;28;20228;-83
2022/09/29 03:44:42;;;;;;;0.80;0.80;;;10.70;74.70;;;10.54;61.27;93526.13;5056232;28;20191;-84
2022/09/29 03:47:09;;;;;;;0.60;0.60;;;10.70;75.30;;;10.52;61.44;93539.47;5054961;28;20230;-83
2022/09/29 03:49:37;;;;;;;0.70;0.70;;;10.70;74.70;;;10.52;61.26;93536.03;5058445;28;20223;-83
2022/09/29 03:52:04;;;;;;;0.70;0.70;;;10.70;74.70;;;10.51;61.18;93534.44;5053376;28;20277;-84
2022/09/29 03:54:31;;;;;;;0.70;0.70;;;10.70;74.80;;;10.43;61.19;93522.47;5068908;28;20268;-84
2022/09/29 03:56:59;;;;;;;0.70;0.70;;;10.70;74.70;;;10.45;61.24;93527.47;5055814;28;20357;-88
2022/09/29 03:59:26;;;;;;;0.63;0.63;;;10.70;75.00;;;10.49;61.51;93534.66;5054933;28;20205;-87
2022/09/29 04:01:55;;;;;;;0.70;0.70;;;10.70;74.70;;;10.47;61.06;93541.16;5055237;28;20314;-86
2022/09/29 04:04:22;;;;;;;0.70;0.70;;;10.60;74.70;;;10.41;61.28;93532.34;5063717;28;20615;-87
2022/09/29 04:06:50;;;;;;;0.60;0.60;;;10.60;74.70;;;10.46;61.17;93535.13;5055695;28;20209;-88
2022/09/29 04:09:18;;;;;;;0.70;0.70;;;10.60;74.70;;;10.35;61.34;93523.56;5085934;28;20255;-87
2022/09/29 04:11:45;;;;;;;0.80;0.80;;;10.60;74.70;;;10.40;61.03;93522.91;5069976;28;20219;-87
2022/09/29 04:14:12;;;;;;;0.70;0.70;;;10.60;74.70;;;10.34;61.00;93511.47;5057068;28;20257;-87
2022/09/29 04:16:40;;;;;;;0.80;0.80;;;10.60;74.70;;;10.34;61.14;93526.38;5055720;28;20219;-87
2022/09/29 04:19:08;;;;;;;0.70;0.70;;;10.60;74.80;;;10.34;61.29;93526.38;5087647;28;20248;-86
2022/09/29 04:21:35;;;;;;;0.70;0.70;;;10.50;74.90;;;10.29;61.04;93523.66;5056856;28;20233;-87
2022/09/29 04:24:03;;;;;;;0.80;0.80;;;10.50;74.90;;;10.28;61.27;93524.66;5075122;28;20241;-87
2022/09/29 04:26:31;;;;;;;0.60;0.60;;;10.40;74.90;;;10.25;61.12;93529.34;5057872;28;20230;-86
2022/09/29 04:28:58;;;;;;;0.52;0.52;;;10.40;74.90;;;10.22;61.45;93526.38;5058054;28;20222;-87
2022/09/29 04:31:26;;;;;;;0.60;0.60;;;10.40;74.90;;;10.23;61.23;93533.22;5057025;28;20199;-87
2022/09/29 04:33:53;;;;;;;0.60;0.60;;;10.50;75.00;;;10.24;61.32;93538.22;5041404;28;20207;-87
2022/09/29 04:36:21;;;;;;;0.80;0.80;;;10.40;75.00;;;10.22;61.08;93539.47;5042513;28;20238;-86
2022/09/29 04:38:50;;;;;;;0.80;0.80;;;10.40;74.90;;;10.17;61.44;93534.91;5078188;28;20606;-86
2022/09/29 04:41:18;;;;;;;0.60;0.60;;;10.40;74.90;;;10.18;61.55;93540.94;5057736;28;20202;-87
2022/09/29 04:43:45;;;;;;;0.70;0.70;;;10.30;74.80;;;10.17;61.55;93550.63;5041447;28;20207;-86
2022/09/29 04:46:14;;;;;;;0.80;0.80;;;10.30;74.80;;;10.09;61.55;93538.63;5068177;28;20207;-87
2022/09/29 04:48:42;;;;;;;0.70;0.70;;;10.30;74.80;;;10.10;61.43;93547.28;5078308;28;20226;-87
2022/09/29 04:51:09;;;;;;;0.70;0.70;;;10.30;74.80;;;10.12;61.43;93553.13;5044493;28;20214;-87
2022/09/29 04:53:37;;;;;;;0.70;0.70;;;10.40;74.90;;;10.05;61.38;93540.09;5068296;28;20203;-86
2022/09/29 04:56:07;;;;;;;0.80;0.80;;;10.30;74.80;;;10.09;61.32;93550.94;5077773;28;20204;-86
2022/09/29 04:58:34;;;;;;;0.70;0.70;;;10.30;74.80;;;10.03;61.51;93544.78;5072311;28;20230;-87
2022/09/29 05:01:13;;;;;;;0.70;0.70;;;10.30;74.80;;;10.00;61.11;93544.41;5070541;28;20195;-86
2022/09/29 05:03:41;;;;;;;0.60;0.60;;;10.20;74.80;;;9.99;61.35;93542.81;5065660;28;20203;-85
2022/09/29 05:06:09;;;;;;;0.60;0.60;;;10.20;74.70;;;9.92;61.33;93540.25;5073960;28;20691;-86
2022/09/29 05:08:36;;;;;;;0.70;0.70;;;10.20;74.70;;;9.91;61.30;93544.72;5091081;28;20255;-86
2022/09/29 05:11:07;;;;;;;0.60;0.60;;;10.20;74.80;;;9.91;61.07;93557.00;5056390;28;20274;-86
2022/09/29 05:13:35;;;;;;;0.70;0.70;;;10.10;74.60;;;9.89;61.22;93562.47;5050551;28;20222;-86
2022/09/29 05:16:03;;;;;;;0.60;0.60;;;10.10;74.60;;;9.83;61.32;93563.34;5077592;28;20657;-87
2022/09/29 05:18:31;;;;;;;0.68;0.68;;;10.10;74.60;;;9.76;61.12;93567.84;5060792;28;20223;-86
2022/09/29 05:21:07;;;;;;;0.60;0.60;;;10.00;74.60;;;9.72;61.18;93564.88;5038978;28;20538;-85
2022/09/29 05:23:55;;;;;;;0.70;0.70;;;10.00;74.60;;;9.68;61.18;93576.00;5061299;28;20399;-87
2022/09/29 05:26:22;;;;;;;0.70;0.70;;;9.90;75.70;;;9.65;61.72;93573.84;5102452;28;20219;-86
2022/09/29 05:28:49;;;;;;;0.70;0.70;;;9.90;75.70;;;9.64;61.53;93574.84;5077245;28;20227;-86
2022/09/29 05:31:17;;;;;;;0.70;0.70;;;9.90;75.70;;;9.61;61.64;93569.03;5057750;28;20200;-86
2022/09/29 05:33:45;;;;;;;0.70;0.70;;;9.90;75.70;;;9.61;61.94;93570.84;5044350;28;20648;-86
2022/09/29 05:36:14;;;;;;;0.50;0.50;;;9.80;75.60;;;9.61;61.90;93573.47;5037381;28;20649;-86
2022/09/29 05:38:41;;;;;;;0.80;0.80;;;9.80;75.60;;;9.61;62.06;93578.72;5053986;28;20192;-85
2022/09/29 05:41:12;;;;;;;0.60;0.60;;;9.80;75.60;;;9.57;61.80;93562.63;5082790;28;20671;-86
2022/09/29 05:43:40;;;;;;;0.63;0.63;;;9.80;75.70;;;9.63;61.79;93571.44;5058916;28;20205;-85
2022/09/29 05:46:09;;;;;;;0.60;0.60;;;9.90;75.70;;;9.66;61.74;93572.81;5076782;28;20682;-85
2022/09/29 05:48:37;;;;;;;0.70;0.70;;;9.90;75.70;;;9.65;61.71;93573.84;5069079;28;20276;-86
2022/09/29 05:51:14;;;;;;;0.60;0.60;;;9.80;75.60;;;9.57;61.64;93556.59;5057682;28;20214;-86
2022/09/29 05:53:46;;;;;;;0.65;0.65;;;9.90;76.00;;;9.61;61.47;93568.25;5066449;28;20687;-85
2022/09/29 05:56:18;;;;;;;0.70;0.70;;;9.80;75.70;;;9.53;61.48;93563.28;5043858;28;20195;-84
2022/09/29 05:58:45;;;;;;;0.70;0.70;;;9.80;75.60;;;9.50;61.45;93569.75;5054808;28;20210;-86
2022/09/29 06:01:16;;;;;;;0.70;0.70;;;9.80;75.60;;;9.50;61.51;93577.63;5054418;28;20195;-84
2022/09/29 06:03:44;;;;;;;0.60;0.60;;;9.80;75.60;;;9.54;61.66;93588.44;5059473;28;20203;-82
2022/09/29 06:06:15;;;;;;;0.60;0.60;;;9.70;75.60;;;9.48;61.63;93576.25;5039988;28;20191;-83
2022/09/29 06:08:44;;;;;;;0.60;0.60;;;9.70;75.90;;;9.49;61.64;93576.00;5038164;28;20219;-84
2022/09/29 06:11:21;;;;;;;0.60;0.60;;;9.70;75.90;;;9.50;61.75;93587.31;5055149;28;20202;-84
2022/09/29 06:13:51;;;;;;;0.60;0.60;;;9.70;76.30;;;9.49;61.84;93578.63;5055345;28;20261;-83
2022/09/29 06:16:24;;;;;;;0.60;0.60;;;9.70;76.30;;;9.53;61.83;93584.22;5055286;28;20218;-84
2022/09/29 06:18:52;;;;;;;0.80;0.80;;;9.70;76.50;;;9.57;62.28;93580.16;5055274;28;20286;-83
2022/09/29 06:21:22;;;;;;;0.60;0.60;;;9.80;76.70;;;9.59;62.24;93578.94;5067866;28;20195;-83
2022/09/29 06:23:51;;;;;;;0.60;0.60;;;9.80;76.90;;;9.67;62.30;93582.28;5039443;28;20301;-84
2022/09/29 06:26:19;;;;;;;0.70;0.70;;;9.90;77.00;;;9.72;62.28;93577.97;5057853;28;20202;-83
2022/09/29 06:28:51;;;;;;;0.70;0.70;;;9.90;77.00;;;9.79;62.34;93577.91;5047984;28;20223;-83
2022/09/29 06:31:22;;;;;;;0.73;0.73;;;9.90;77.00;;;9.86;62.80;93578.63;5068435;28;20205;-84
2022/09/29 06:33:52;;;;;;;0.80;0.80;;;10.00;76.10;;;9.92;62.76;93572.50;5039560;28;20202;-83
2022/09/29 06:39:13;;;;;;;0.60;0.60;;;10.10;76.10;;;10.06;62.67;93570.50;5061892;28;20226;-84
2022/09/29 06:41:47;;;;;;;0.60;0.60;;;10.20;76.10;;;10.15;62.70;93571.00;5054970;28;20222;-83
2022/09/29 06:44:15;;;;;;;0.60;0.60;;;10.20;76.10;;;10.22;62.69;93573.53;5087839;28;20222;-85
2022/09/29 06:46:42;;;;;;;0.60;0.60;;;10.40;76.20;;;10.29;62.77;93573.44;5106233;28;20229;-83
2022/09/29 06:49:14;;;;;;;0.70;0.70;;;10.40;76.20;;;10.36;62.80;93569.75;5057874;28;20214;-84
2022/09/29 06:51:42;;;;;;;0.60;0.60;;;10.50;76.60;;;10.40;63.06;93559.63;5043382;28;20215;-83
2022/09/29 06:54:15;;;;;;;0.77;0.77;;;10.60;76.40;;;10.47;63.46;93570.00;5037131;28;20195;-84
2022/09/29 06:56:50;;;;;;;0.60;0.60;;;10.70;76.30;;;10.56;63.28;93563.41;5054926;28;20249;-86
2022/09/29 06:59:17;;;;;;;0.60;0.60;;;10.80;76.50;;;10.70;63.28;93569.25;5091137;28;20198;-84
2022/09/29 07:01:48;;;;;;;0.60;0.60;;;10.90;76.40;;;10.79;63.31;93565.28;5050922;28;20288;-85
2022/09/29 07:04:18;;;;;;;0.60;0.60;;;11.00;76.30;;;10.91;63.18;93575.75;5070123;28;20215;-85
2022/09/29 07:06:47;;;;;;;0.70;0.70;;;11.10;76.30;;;10.97;63.32;93572.22;5055136;28;20750;-84
2022/09/29 07:09:15;;;;;;;0.60;0.60;;;11.20;76.10;;;11.05;63.05;93563.25;5040148;28;20226;-84
2022/09/29 07:11:49;;;;;;;0.70;0.70;;;11.30;76.10;;;11.10;63.27;93568.59;5069530;28;20795;-85
2022/09/29 07:14:21;;;;;;;0.70;0.70;;;11.40;75.90;;;11.18;63.06;93572.69;5038451;28;20199;-85
2022/09/29 07:16:50;;;;;;;0.60;0.60;;;11.40;75.90;;;11.24;63.35;93576.25;5035002;28;20219;-85
2022/09/29 07:19:18;;;;;;;0.80;0.80;;;11.50;75.80;;;11.33;63.13;93583.53;5056006;28;20233;-84
2022/09/29 07:21:47;;;;;;;0.70;0.70;;;11.60;75.70;;;11.40;63.20;93577.38;5056582;28;20310;-85
2022/09/29 07:24:15;;;;;;;0.60;0.60;;;11.70;75.80;;;11.51;63.08;93576.56;5042959;28;20284;-85
2022/09/29 07:26:42;;;;;;;0.68;0.68;;;11.70;75.80;;;11.57;63.14;93573.03;5073053;28;20643;-85
2022/09/29 07:29:10;;;;;;;0.80;0.80;;;11.80;75.80;;;11.70;63.05;93571.97;5058562;28;20230;-84
2022/09/29 07:31:47;;;;;;;0.60;0.60;;;11.90;75.90;;;11.75;62.98;93579.94;5055829;28;20224;-83
2022/09/29 07:34:19;;;;;;;0.70;0.70;;;12.00;76.00;;;11.82;62.79;93582.44;5088402;28;20210;-82
2022/09/29 07:36:46;;;;;;;0.65;0.65;;;12.00;76.00;;;11.90;62.64;93587.34;5052818;28;20221;-83
2022/09/29 07:39:14;;;;;;;0.70;0.70;;;12.10;76.10;;;11.96;62.64;93594.34;5073953;28;20214;-83
2022/09/29 07:41:42;;;;;;;0.65;0.65;;;12.20;76.10;;;12.01;62.99;93590.97;5054789;28;20336;-83
2022/09/29 07:44:10;;;;;;;0.60;0.60;;;12.20;76.20;;;12.08;62.45;93596.91;5054596;28;20195;-83
2022/09/29 07:46:38;;;;;;;0.60;0.60;;;12.30;75.90;;;12.14;62.36;93600.44;5052826;28;20272;-83
2022/09/29 07:49:05;;;;;;;0.60;0.60;;;12.40;75.70;;;12.19;62.34;93594.50;5051980;28;20635;-84
2022/09/29 07:51:33;;;;;;;0.60;0.60;;;12.40;75.60;;;12.26;62.43;93598.56;5054596;28;20595;-85
2022/09/29 07:54:03;;;;;;;0.60;0.60;;;12.50;75.90;;;12.33;62.46;93593.19;5054359;28;20206;-84
2022/09/29 07:56:31;;;;;;;0.60;0.60;;;12.60;76.10;;;12.43;62.61;93595.19;5057381;28;20246;-86
2022/09/29 07:59:01;;;;;;;0.60;0.60;;;12.70;76.00;;;12.53;62.38;93597.22;5049881;28;20776;-85
2022/09/29 08:01:28;;;;;;;0.70;0.70;;;12.70;75.80;;;12.61;62.35;93597.63;5041470;28;20685;-85
2022/09/29 08:03:56;;;;;;;0.50;0.50;;;12.80;75.90;;;12.72;62.25;93609.13;5071442;28;20284;-84
2022/09/29 08:06:25;;;;;;;0.60;0.60;;;12.80;75.80;;;12.81;62.19;93607.69;5086935;28;20195;-84
2022/09/29 08:08:52;;;;;;;0.70;0.70;;;12.90;75.70;;;12.90;62.31;93608.09;5056820;28;20226;-85
2022/09/29 08:11:32;;;;;;;0.60;0.60;;;13.10;75.80;;;13.00;61.84;93607.47;5067989;28;20311;-85
2022/09/29 08:14:00;;;;;;;0.60;0.60;;;13.10;75.80;;;13.14;61.91;93618.47;5039684;28;20193;-85
2022/09/29 08:16:29;;;;;;;0.60;0.60;;;13.30;75.70;;;13.22;62.28;93615.44;5055572;28;20201;-85
2022/09/29 08:18:57;;;;;;;0.60;0.60;;;13.40;75.50;;;13.33;61.45;93618.22;5056813;28;20252;-84
2022/09/29 08:21:24;;;;;;;0.60;0.60;;;13.50;75.30;;;13.33;61.40;93605.03;5041035;28;20286;-83
2022/09/29 08:23:52;;;;;;;0.50;0.50;;;13.60;75.20;;;13.44;61.38;93612.91;5055777;28;20652;-84
2022/09/29 08:26:21;;;;;;;0.60;0.60;;;13.70;76.00;;;13.59;61.79;93619.44;5086526;28;20672;-83
2022/09/29 08:29:05;;;;;;;0.80;0.80;;;13.80;75.00;;;13.71;61.73;93619.34;5059725;28;20688;-85
2022/09/29 08:31:37;;;;;;;0.60;0.60;;;13.90;75.10;;;13.76;61.39;93609.63;5073950;28;20219;-84
2022/09/29 08:34:06;;;;;;;0.80;0.80;;;14.00;75.10;;;13.93;61.65;93606.16;5056462;28;20203;-84
2022/09/29 08:36:35;;;;;;;0.60;0.60;;;14.20;76.20;;;14.15;61.51;93619.34;5055508;28;20207;-84
2022/09/29 08:39:03;;;;;;;0.60;0.60;;;14.30;75.50;;;14.33;61.38;93618.25;5041970;28;20718;-84
2022/09/29 08:42:01;;;;;;;0.60;0.60;;;14.50;75.50;;;14.61;61.27;93626.16;5054470;28;20221;-85
2022/09/29 08:44:43;;;;;;;0.70;0.70;;;14.70;75.20;;;14.83;61.41;93618.22;5071446;28;20206;-85
2022/09/29 08:47:25;;;;;;;0.75;0.75;;;15.00;74.70;;;15.07;60.66;93615.28;5054342;28;20225;-85
2022/09/29 08:50:41;;;;;;;0.70;0.70;;;15.20;74.40;;;15.24;60.09;93617.78;5070819;28;20292;-85
2022/09/29 08:53:15;;;;;;;0.60;0.60;;;15.40;73.80;;;15.34;59.97;93620.50;5039996;28;20319;-85
2022/09/29 08:56:08;;;;;;;0.57;0.57;;;15.60;73.30;;;15.39;59.18;93615.25;5056191;28;20233;-84
2022/09/29 08:58:38;;;;;;;0.50;0.50;;;15.70;73.20;;;15.48;59.32;93626.94;5070054;28;20199;-85
2022/09/29 09:01:20;;;;;;;0.60;0.60;;;15.80;74.40;;;15.57;59.63;93629.13;5107187;28;20537;-84
2022/09/29 09:04:27;;;;;;;0.50;0.50;;;15.80;73.00;;;15.65;59.01;93624.13;5056574;28;20195;-85
2022/09/29 09:07:29;;;;;;;0.50;0.50;;;16.00;73.00;;;15.80;58.98;93630.56;5048544;28;20276;-85
2022/09/29 09:10:29;;;;;;;0.50;0.50;;;16.10;73.50;;;15.94;59.10;93634.38;5080487;28;20218;-85
2022/09/29 09:13:15;;;;;;;0.50;0.50;;;16.30;72.60;;;16.12;58.53;93637.63;5071368;28;20294;-83
2022/09/29 09:15:53;;;;;;;0.60;0.60;;;16.40;72.30;;;16.23;57.88;93643.78;5087169;28;20298;-85
2022/09/29 09:19:12;;;;;;;0.50;0.50;;;16.50;72.20;;;16.33;57.45;93634.03;5087066;28;20317;-84
2022/09/29 09:21:50;;;;;;;0.50;0.50;;;16.60;71.20;;;16.41;57.32;93631.94;5070384;28;20317;-85
2022/09/29 09:24:28;;;;;;;0.50;0.50;;;16.70;70.50;;;16.45;57.17;93633.00;5056781;28;20273;-84
2022/09/29 09:26:58;;;;;;;0.55;0.55;;;16.80;70.70;;;16.51;56.98;93631.97;5038499;28;20747;-85
2022/09/29 09:29:35;;;;;;;0.70;0.70;;;16.80;70.40;;;16.52;56.45;93636.19;5039201;28;20321;-85
2022/09/29 09:32:16;;;;;;;0.60;0.60;;;16.80;70.50;;;16.50;55.92;93646.25;5102870;28;20272;-85
2022/09/29 09:34:48;;;;;;;0.60;0.60;;;16.90;69.80;;;16.45;56.46;93644.41;5047135;28;20222;-85
2022/09/29 09:37:25;;;;;;;0.57;0.57;;;16.90;70.30;;;16.44;55.75;93632.22;5056363;28;20214;-85
2022/09/29 09:40:26;;;;;;;0.50;0.50;;;16.90;69.50;;;16.45;56.19;93639.09;5064680;28;20587;-85
2022/09/29 09:43:09;;;;;;;0.60;0.60;;;16.90;69.80;;;16.45;55.70;93643.59;5072234;28;20233;-85
2022/09/29 09:45:47;;;;;;;0.60;0.60;;;16.90;69.60;;;16.47;56.36;93655.50;5054306;28;20317;-85
2022/09/29 09:48:30;;;;;;;0.50;0.50;;;16.90;69.80;;;16.50;55.73;93643.59;5055196;28;20218;-86
2022/09/29 09:51:06;;;;;;;0.60;0.60;;;16.90;69.30;;;16.58;55.65;93643.09;5036141;28;20215;-86
2022/09/29 09:53:40;;;;;;;0.55;0.55;;;16.90;69.30;;;16.66;55.58;93641.78;5032869;28;20305;-83
2022/09/29 09:56:20;;;;;;;0.50;0.50;;;17.00;69.60;;;16.75;55.33;93634.16;5060720;28;20331;-85
2022/09/29 09:59:13;;;;;;;0.52;0.52;;;17.10;69.70;;;16.80;55.48;93626.22;5076485;28;20552;-83
2022/09/29 10:01:40;;;;;;;0.50;0.50;;;17.10;69.30;;;16.83;54.52;93622.22;5067907;28;20248;-84
2022/09/29 10:04:11;;;;;;;0.52;0.52;;;17.20;69.40;;;16.91;54.75;93640.25;5070898;28;20252;-83
2022/09/29 10:06:39;;;;;;;0.50;0.50;;;17.20;69.20;;;16.96;55.09;93638.44;5054893;28;20757;-83
2022/09/29 10:09:13;;;;;;;0.52;0.52;;;17.30;69.70;;;17.00;54.50;93636.06;5087613;28;20217;-83
2022/09/29 10:11:42;;;;;;;0.50;0.50;;;17.30;68.70;;;17.03;54.71;93643.50;5070969;28;20221;-84
2022/09/29 10:14:27;;;;;;;0.50;0.50;;;17.40;68.90;;;17.01;54.52;93644.81;5052540;28;20209;-84
2022/09/29 10:17:04;;;;;;;0.50;0.50;;;17.40;68.90;;;17.02;54.58;93638.47;5070163;28;20218;-85
2022/09/29 10:19:58;;;;;;;0.50;0.50;;;17.40;68.70;;;17.03;54.63;93638.19;5037876;28;20194;-83
2022/09/29 10:22:28;;;;;;;0.50;0.50;;;17.40;69.00;;;17.06;54.45;93637.66;5101017;28;20779;-81
2022/09/29 10:25:14;;;;;;;0.50;0.50;;;17.50;69.00;;;17.11;54.21;93642.97;5052338;28;20657;-83
2022/09/29 10:27:45;;;;;;;0.50;0.50;;;17.50;68.80;;;17.18;54.79;93636.63;5053427;28;20218;-82
2022/09/29 10:30:34;;;;;;;0.50;0.50;;;17.50;69.30;;;17.32;54.96;93632.38;5036393;28;20334;-83
2022/09/29 10:33:05;;;;;;;0.50;0.50;;;17.60;69.00;;;17.40;54.20;93621.22;5052968;28;20225;-85
2022/09/29 10:35:43;;;;;;;0.50;0.50;;;17.70;68.80;;;17.54;53.70;93626.78;5056457;28;20220;-83
2022/09/29 10:38:26;;;;;;;0.50;0.50;;;17.80;68.40;;;17.60;54.16;93635.53;5037609;28;20795;-86
2022/09/29 10:41:03;;;;;;;0.50;0.50;;;17.90;68.60;;;17.62;53.03;93627.31;5037166;28;20244;-82
2022/09/29 10:43:38;;;;;;;0.50;0.50;;;18.00;68.30;;;17.65;53.53;93621.47;5054264;28;20245;-83
2022/09/29 10:46:26;;;;;;;0.50;0.50;;;18.00;67.90;;;17.66;53.50;93610.59;5054887;28;20191;-83
2022/09/29 10:49:17;;;;;;;0.45;0.45;;;18.00;68.00;;;17.73;53.53;93607.66;5087934;28;20222;-83
2022/09/29 10:52:21;;;;;;;0.50;0.50;;;18.10;67.90;;;17.76;53.29;93613.22;5086417;27;20225;-83
2022/09/29 10:54:58;;;;;;;0.40;0.40;;;18.20;67.60;;;17.83;52.60;93610.28;5057568;28;20209;-82
2022/09/29 10:57:28;;;;;;;0.50;0.50;;;18.20;67.50;;;17.87;53.17;93607.88;5073634;28;20235;-82